createdAt,value
2022-11-14T00:02:16.327Z,77.82
2022-11-14T00:04:43.596Z,78.29
2022-11-14T00:07:07.896Z,77.31
2022-11-14T00:09:32.831Z,77.15
2022-11-14T00:11:58.347Z,76.96
2022-11-14T00:14:23.109Z,76.44
2022-11-14T00:16:47.143Z,76.53
2022-11-14T00:19:11.893Z,76.53
2022-11-14T00:21:41.755Z,76.88
2022-11-14T00:24:05.657Z,76.02
2022-11-14T00:26:30.391Z,76.04
2022-11-14T00:28:54.708Z,76.41
2022-11-14T00:31:18.768Z,76.09
2022-11-14T00:33:44.903Z,76.07
2022-11-14T00:36:08.996Z,75.68
2022-11-14T00:38:35.562Z,75.65
2022-11-14T00:41:00.337Z,75.81
2022-11-14T00:43:24.187Z,76.12
2022-11-14T00:45:48.865Z,75.96
2022-11-14T00:48:16.477Z,76.34
2022-11-14T00:50:45.958Z,75.88
2022-11-14T00:53:10.349Z,75.69
2022-11-14T00:55:38.193Z,75.84
2022-11-14T00:58:02.303Z,75.62
2022-11-14T01:00:26.556Z,75.81
2022-11-14T01:02:51.532Z,75.46
2022-11-14T01:05:15.728Z,75.64
2022-11-14T01:07:39.530Z,75.89
2022-11-14T01:10:04.285Z,75.96
2022-11-14T01:12:30.774Z,76.11
2022-11-14T01:14:55.061Z,76.29
2022-11-14T01:17:20.014Z,75.98
2022-11-14T01:19:44.247Z,76.24
2022-11-14T01:22:08.551Z,76.15
2022-11-14T01:24:35.064Z,75.83
2022-11-14T01:26:59.242Z,75.80
2022-11-14T01:29:25.974Z,75.74
2022-11-14T01:31:50.647Z,76.15
2022-11-14T01:34:14.587Z,75.99
2022-11-14T01:36:38.823Z,75.58
2022-11-14T01:39:04.233Z,76.01
2022-11-14T01:41:28.027Z,76.31
2022-11-14T01:43:53.115Z,76.56
2022-11-14T01:46:25.685Z,76.91
2022-11-14T01:48:55.181Z,77.27
2022-11-14T01:51:31.640Z,76.96
2022-11-14T01:53:58.598Z,77.18
2022-11-14T01:56:30.026Z,77.29
2022-11-14T01:59:01.550Z,77.12
2022-11-14T02:01:31.640Z,76.21
2022-11-14T02:03:58.832Z,76.01
2022-11-14T02:06:26.899Z,76.19
2022-11-14T02:08:54.430Z,76.14
2022-11-14T02:11:18.562Z,76.56
2022-11-14T02:13:42.876Z,77.01
2022-11-14T02:16:08.820Z,77.24
2022-11-14T02:18:35.277Z,77.63
2022-11-14T02:21:03.492Z,77.56
2022-11-14T02:23:30.049Z,77.38
2022-11-14T02:25:54.360Z,77.33
2022-11-14T02:28:20.840Z,77.68
2022-11-14T02:30:45.813Z,78.13
2022-11-14T02:33:11.257Z,77.58
2022-11-14T02:35:36.020Z,77.70
2022-11-14T02:38:03.215Z,77.33
2022-11-14T02:40:27.244Z,77.21
2022-11-14T02:42:51.234Z,76.43
2022-11-14T02:45:17.001Z,76.51
2022-11-14T02:47:41.123Z,76.54
2022-11-14T02:50:05.301Z,76.57
2022-11-14T02:52:30.440Z,76.35
2022-11-14T02:54:57.250Z,76.32
2022-11-14T02:57:21.424Z,76.39
2022-11-14T02:59:46.644Z,76.04
2022-11-14T03:02:10.570Z,76.26
2022-11-14T03:04:34.313Z,75.96
2022-11-14T03:06:59.315Z,75.66
2022-11-14T03:09:24.219Z,75.50
2022-11-14T03:11:51.104Z,75.90
2022-11-14T03:14:16.055Z,75.53
2022-11-14T03:16:40.372Z,75.67
2022-11-14T03:19:04.818Z,75.65
2022-11-14T03:21:29.967Z,76.02
2022-11-14T03:23:54.054Z,76.34
2022-11-14T03:26:19.179Z,76.75
2022-11-14T03:28:46.988Z,76.75
2022-11-14T03:31:13.251Z,76.27
2022-11-14T03:33:38.608Z,76.64
2022-11-14T03:36:03.720Z,76.72
2022-11-14T03:38:28.208Z,76.46
2022-11-14T03:40:53.295Z,76.86
2022-11-14T03:43:19.600Z,76.72
2022-11-14T03:45:46.448Z,76.82
2022-11-14T03:48:10.977Z,77.28
2022-11-14T03:50:36.255Z,77.01
2022-11-14T03:53:00.496Z,77.16
2022-11-14T03:55:24.532Z,77.43
2022-11-14T03:57:50.701Z,77.60
2022-11-14T04:00:16.611Z,77.09
2022-11-14T04:02:42.925Z,76.88
2022-11-14T04:05:09.415Z,76.76
2022-11-14T04:07:35.985Z,77.05
2022-11-14T04:10:00.115Z,77.04
2022-11-14T04:12:25.235Z,77.02
2022-11-14T04:14:49.303Z,77.01
2022-11-14T04:17:13.810Z,76.83
2022-11-14T04:19:41.155Z,77.16
2022-11-14T04:22:06.480Z,76.48
2022-11-14T04:24:30.708Z,76.11
2022-11-14T04:26:55.426Z,76.53
2022-11-14T07:05:04.987Z,38.64
2022-11-14T07:08:13.338Z,38.63
2022-11-14T07:20:19.544Z,37.69
2022-11-14T07:31:56.940Z,40.41
2022-11-14T07:34:51.477Z,40.40
2022-11-14T07:37:22.250Z,40.48
2022-11-14T07:40:19.643Z,40.40
2022-11-14T07:42:50.222Z,39.90
2022-11-14T07:52:27.326Z,39.50
2022-11-14T10:59:51.466Z,36.12
2022-11-14T11:36:21.447Z,39.41
2022-11-14T11:38:51.465Z,39.27
2022-11-14T11:42:06.182Z,38.98
2022-11-14T11:44:26.302Z,37.88
2022-11-14T11:47:14.528Z,37.41
2022-11-14T11:50:02.998Z,37.22
2022-11-14T11:53:33.779Z,37.11
2022-11-14T11:56:20.275Z,37.19
2022-11-14T11:59:50.681Z,36.85
2022-11-14T12:02:49.852Z,37.09
2022-11-14T12:06:25.589Z,37.33
2022-11-14T12:10:03.612Z,37.38
2022-11-14T12:12:48.047Z,37.25
2022-11-14T12:15:07.138Z,37.24
2022-11-14T12:17:47.723Z,36.98
2022-11-14T12:23:19.823Z,38.05
2022-11-14T19:03:49.163Z,75.59
2022-11-14T19:06:16.750Z,75.62
2022-11-14T19:08:41.506Z,75.86
2022-11-14T19:11:36.461Z,75.90
2022-11-14T19:14:07.920Z,75.80
2022-11-14T19:16:33.005Z,75.78
2022-11-14T19:19:01.099Z,75.80
2022-11-14T19:21:26.851Z,87.33
2022-11-14T19:23:53.145Z,74.67
2022-11-14T19:26:18.513Z,73.93
2022-11-14T19:28:46.374Z,74.59
2022-11-14T19:31:13.508Z,75.47
2022-11-14T19:33:38.489Z,76.12
2022-11-14T19:36:18.828Z,76.70
2022-11-14T19:39:29.512Z,77.34
2022-11-14T19:44:15.153Z,78.17
2022-11-14T19:46:46.033Z,78.39
2022-11-14T19:49:27.044Z,78.56
2022-11-14T19:51:52.923Z,78.36
2022-11-14T19:54:20.274Z,78.17
2022-11-14T19:56:45.666Z,78.03
2022-11-14T19:59:15.009Z,77.70
2022-11-14T20:01:42.365Z,77.72
2022-11-14T20:04:15.947Z,77.36
2022-11-14T20:06:44.197Z,77.34
2022-11-14T20:09:25.603Z,77.32
2022-11-14T20:12:07.012Z,77.48
2022-11-14T20:14:32.337Z,77.58
2022-11-14T20:17:00.029Z,77.68
2022-11-14T20:19:27.921Z,78.03
2022-11-14T20:21:52.972Z,78.06
2022-11-14T20:24:21.678Z,77.96
2022-11-14T20:26:46.724Z,77.81
2022-11-14T20:29:14.612Z,77.49
2022-11-14T20:31:39.202Z,77.67
2022-11-14T20:34:03.735Z,77.66
2022-11-14T20:36:49.945Z,77.73
2022-11-14T20:39:15.015Z,77.64
2022-11-14T20:41:40.844Z,76.98
2022-11-14T20:44:05.919Z,77.30
2022-11-14T20:46:33.038Z,76.90
2022-11-14T20:48:59.896Z,76.82
2022-11-14T20:51:27.657Z,76.92
2022-11-14T20:53:54.821Z,77.02
2022-11-14T20:56:20.624Z,76.88
2022-11-14T20:58:48.936Z,77.22
2022-11-14T21:01:14.320Z,77.01
2022-11-14T21:03:43.427Z,76.95
2022-11-14T21:06:11.401Z,76.55
2022-11-14T21:08:38.994Z,76.28
2022-11-14T21:11:10.926Z,76.29
2022-11-14T21:13:52.905Z,76.01
2022-11-14T21:16:22.035Z,75.81
2022-11-14T21:18:50.379Z,75.70
2022-11-14T21:21:18.840Z,76.00
2022-11-14T21:23:44.247Z,75.65
2022-11-14T21:26:12.232Z,75.89
2022-11-14T21:28:39.717Z,76.39
2022-11-14T21:31:15.286Z,76.47
2022-11-14T21:33:39.528Z,76.47
2022-11-14T21:39:02.700Z,76.50
2022-11-14T21:41:31.799Z,76.11
2022-11-14T21:43:58.907Z,76.31
2022-11-14T21:46:24.143Z,76.26
2022-11-14T21:48:51.123Z,76.02
2022-11-14T21:51:21.276Z,76.44
2022-11-14T21:53:59.099Z,76.04
2022-11-14T21:56:27.834Z,75.78
2022-11-14T21:59:12.817Z,75.96
2022-11-14T22:01:50.739Z,76.07
2022-11-14T22:04:15.064Z,76.05
2022-11-14T22:06:48.753Z,75.68
2022-11-14T22:09:16.190Z,75.46
2022-11-14T22:11:43.404Z,75.58
2022-11-14T22:14:08.753Z,75.33
2022-11-14T22:16:33.247Z,75.63
2022-11-14T22:19:04.988Z,75.83
2022-11-14T22:21:34.916Z,75.94
2022-11-14T22:24:03.106Z,75.97
2022-11-14T22:26:46.977Z,75.92
2022-11-14T22:29:12.441Z,76.11
2022-11-14T22:31:36.985Z,76.23
2022-11-14T22:34:03.340Z,75.91
2022-11-14T22:36:34.250Z,75.66
2022-11-14T22:39:08.328Z,75.56
2022-11-14T22:41:36.469Z,75.16
2022-11-14T22:44:01.367Z,75.36
2022-11-14T22:46:32.698Z,74.79
2022-11-14T22:48:58.445Z,75.14
2022-11-14T22:51:25.322Z,75.23
2022-11-14T22:53:52.689Z,75.17
2022-11-14T22:56:23.007Z,75.06
2022-11-14T22:59:00.377Z,74.68
2022-11-14T23:01:31.442Z,74.35
2022-11-14T23:04:02.165Z,74.41
2022-11-14T23:06:28.591Z,73.72
2022-11-14T23:09:08.966Z,74.00
2022-11-14T23:11:47.806Z,73.89
2022-11-14T23:14:16.154Z,74.15
2022-11-14T23:16:45.627Z,74.08
2022-11-14T23:19:09.767Z,74.12
2022-11-14T23:21:37.838Z,73.36
2022-11-14T23:24:07.049Z,73.79
2022-11-14T23:26:33.836Z,73.80
2022-11-14T23:29:09.945Z,73.97
2022-11-14T23:31:38.256Z,74.13
2022-11-14T23:34:08.958Z,73.93
2022-11-14T23:36:37.453Z,73.76
2022-11-14T23:39:02.448Z,73.11
2022-11-14T23:41:28.323Z,73.61
2022-11-14T23:43:53.356Z,73.63
2022-11-14T23:46:30.175Z,74.01
2022-11-14T23:48:55.353Z,73.96
2022-11-14T23:51:19.707Z,74.62
2022-11-14T23:53:45.485Z,74.50
2022-11-14T23:56:15.920Z,73.96
2022-11-14T23:58:43.170Z,73.97
